sensor_id;sensor_type;location;lat;lon;timestamp;temperature;humidity
73112;HTU21D;61301;51.956;5.876;2024-02-23T00:01:32;10.21;60.40
73112;HTU21D;61301;51.956;5.876;2024-02-23T00:03:58;10.18;60.40
73112;HTU21D;61301;51.956;5.876;2024-02-23T00:06:24;10.14;60.34
73112;HTU21D;61301;51.956;5.876;2024-02-23T00:08:54;10.27;60.12
73112;HTU21D;61301;51.956;5.876;2024-02-23T00:11:21;10.35;59.96
73112;HTU21D;61301;51.956;5.876;2024-02-23T00:13:47;10.36;60.15
73112;HTU21D;61301;51.956;5.876;2024-02-23T00:16:13;10.38;60.32
73112;HTU21D;61301;51.956;5.876;2024-02-23T00:18:39;10.36;60.44
73112;HTU21D;61301;51.956;5.876;2024-02-23T00:21:04;10.40;60.39
73112;HTU21D;61301;51.956;5.876;2024-02-23T00:23:31;10.45;60.34
73112;HTU21D;61301;51.956;5.876;2024-02-23T00:25:57;10.45;60.47
73112;HTU21D;61301;51.956;5.876;2024-02-23T00:28:23;10.43;60.40
73112;HTU21D;61301;51.956;5.876;2024-02-23T00:30:49;10.50;60.18
73112;HTU21D;61301;51.956;5.876;2024-02-23T00:33:15;10.55;59.83
73112;HTU21D;61301;51.956;5.876;2024-02-23T00:35:41;10.57;59.93
73112;HTU21D;61301;51.956;5.876;2024-02-23T00:38:07;10.34;60.42
73112;HTU21D;61301;51.956;5.876;2024-02-23T00:40:33;10.35;60.39
73112;HTU21D;61301;51.956;5.876;2024-02-23T00:42:59;10.36;60.44
73112;HTU21D;61301;51.956;5.876;2024-02-23T00:45:26;10.28;60.55
73112;HTU21D;61301;51.956;5.876;2024-02-23T00:47:52;10.31;60.67
73112;HTU21D;61301;51.956;5.876;2024-02-23T00:50:18;10.23;60.60
73112;HTU21D;61301;51.956;5.876;2024-02-23T00:52:44;10.23;59.41
73112;HTU21D;61301;51.956;5.876;2024-02-23T00:55:10;10.27;58.67
73112;HTU21D;61301;51.956;5.876;2024-02-23T00:57:38;10.35;58.29
73112;HTU21D;61301;51.956;5.876;2024-02-23T01:00:04;10.38;58.32
73112;HTU21D;61301;51.956;5.876;2024-02-23T01:02:35;10.62;58.09
73112;HTU21D;61301;51.956;5.876;2024-02-23T01:05:01;10.67;58.42
73112;HTU21D;61301;51.956;5.876;2024-02-23T01:07:28;10.63;58.89
73112;HTU21D;61301;51.956;5.876;2024-02-23T01:09:54;10.57;59.44
73112;HTU21D;61301;51.956;5.876;2024-02-23T01:12:20;10.60;59.57
73112;HTU21D;61301;51.956;5.876;2024-02-23T01:14:46;10.62;59.71
73112;HTU21D;61301;51.956;5.876;2024-02-23T01:17:14;10.39;60.67
73112;HTU21D;61301;51.956;5.876;2024-02-23T01:19:44;10.39;60.80
73112;HTU21D;61301;51.956;5.876;2024-02-23T01:22:10;10.26;61.02
73112;HTU21D;61301;51.956;5.876;2024-02-23T01:24:36;10.39;60.85
73112;HTU21D;61301;51.956;5.876;2024-02-23T01:27:03;10.33;60.97
73112;HTU21D;61301;51.956;5.876;2024-02-23T01:29:29;10.41;60.79
73112;HTU21D;61301;51.956;5.876;2024-02-23T01:31:55;10.42;60.65
73112;HTU21D;61301;51.956;5.876;2024-02-23T01:34:21;10.50;60.33
73112;HTU21D;61301;51.956;5.876;2024-02-23T01:36:47;10.58;60.20
73112;HTU21D;61301;51.956;5.876;2024-02-23T01:39:13;10.53;60.12
73112;HTU21D;61301;51.956;5.876;2024-02-23T01:41:39;10.51;59.99
73112;HTU21D;61301;51.956;5.876;2024-02-23T01:44:06;10.46;59.89
73112;HTU21D;61301;51.956;5.876;2024-02-23T01:46:32;10.31;59.93
73112;HTU21D;61301;51.956;5.876;2024-02-23T01:48:58;10.46;59.64
73112;HTU21D;61301;51.956;5.876;2024-02-23T01:51:25;10.35;59.61
73112;HTU21D;61301;51.956;5.876;2024-02-23T01:53:51;10.41;59.28
73112;HTU21D;61301;51.956;5.876;2024-02-23T01:56:18;10.40;59.26
73112;HTU21D;61301;51.956;5.876;2024-02-23T01:58:49;10.37;59.23
73112;HTU21D;61301;51.956;5.876;2024-02-23T02:01:15;10.39;59.08
73112;HTU21D;61301;51.956;5.876;2024-02-23T02:03:41;10.25;59.25
73112;HTU21D;61301;51.956;5.876;2024-02-23T02:06:09;10.36;59.05
73112;HTU21D;61301;51.956;5.876;2024-02-23T02:08:36;10.39;58.78
73112;HTU21D;61301;51.956;5.876;2024-02-23T02:11:02;10.36;58.66
73112;HTU21D;61301;51.956;5.876;2024-02-23T02:13:29;10.33;58.72
73112;HTU21D;61301;51.956;5.876;2024-02-23T02:16:01;10.34;58.70
73112;HTU21D;61301;51.956;5.876;2024-02-23T02:18:28;10.31;58.51
73112;HTU21D;61301;51.956;5.876;2024-02-23T02:20:55;10.33;58.38
73112;HTU21D;61301;51.956;5.876;2024-02-23T02:23:23;10.27;58.42
73112;HTU21D;61301;51.956;5.876;2024-02-23T02:25:58;10.29;58.24
73112;HTU21D;61301;51.956;5.876;2024-02-23T02:28:25;10.33;58.07
73112;HTU21D;61301;51.956;5.876;2024-02-23T02:30:52;10.33;58.04
73112;HTU21D;61301;51.956;5.876;2024-02-23T02:33:21;10.35;57.86
73112;HTU21D;61301;51.956;5.876;2024-02-23T02:35:48;10.35;57.90
73112;HTU21D;61301;51.956;5.876;2024-02-23T02:38:16;10.38;57.85
73112;HTU21D;61301;51.956;5.876;2024-02-23T02:40:42;10.39;57.71
73112;HTU21D;61301;51.956;5.876;2024-02-23T02:43:08;10.41;57.61
73112;HTU21D;61301;51.956;5.876;2024-02-23T02:45:34;10.36;57.55
73112;HTU21D;61301;51.956;5.876;2024-02-23T02:48:00;10.42;57.43
73112;HTU21D;61301;51.956;5.876;2024-02-23T02:50:27;10.40;57.38
73112;HTU21D;61301;51.956;5.876;2024-02-23T02:52:54;10.40;57.39
73112;HTU21D;61301;51.956;5.876;2024-02-23T02:55:20;10.43;57.32
73112;HTU21D;61301;51.956;5.876;2024-02-23T02:57:46;10.48;57.08
73112;HTU21D;61301;51.956;5.876;2024-02-23T03:00:12;10.51;56.91
73112;HTU21D;61301;51.956;5.876;2024-02-23T03:02:38;10.49;56.84
73112;HTU21D;61301;51.956;5.876;2024-02-23T03:05:04;10.51;56.66
73112;HTU21D;61301;51.956;5.876;2024-02-23T03:07:30;10.50;56.61
73112;HTU21D;61301;51.956;5.876;2024-02-23T03:09:56;10.46;56.62
73112;HTU21D;61301;51.956;5.876;2024-02-23T03:12:22;10.36;56.64
73112;HTU21D;61301;51.956;5.876;2024-02-23T03:14:48;10.49;56.19
73112;HTU21D;61301;51.956;5.876;2024-02-23T03:17:15;10.57;56.28
73112;HTU21D;61301;51.956;5.876;2024-02-23T03:19:41;10.46;56.19
73112;HTU21D;61301;51.956;5.876;2024-02-23T03:22:07;10.44;56.26
73112;HTU21D;61301;51.956;5.876;2024-02-23T03:24:33;10.43;56.16
73112;HTU21D;61301;51.956;5.876;2024-02-23T03:27:06;10.40;56.28
73112;HTU21D;61301;51.956;5.876;2024-02-23T03:29:32;10.37;56.22
73112;HTU21D;61301;51.956;5.876;2024-02-23T03:31:58;10.42;56.23
73112;HTU21D;61301;51.956;5.876;2024-02-23T03:34:24;10.44;56.18
73112;HTU21D;61301;51.956;5.876;2024-02-23T03:36:50;10.34;56.43
73112;HTU21D;61301;51.956;5.876;2024-02-23T03:39:16;10.41;56.38
73112;HTU21D;61301;51.956;5.876;2024-02-23T03:41:42;10.39;56.36
73112;HTU21D;61301;51.956;5.876;2024-02-23T03:44:11;10.38;56.53
73112;HTU21D;61301;51.956;5.876;2024-02-23T03:46:38;10.25;56.85
73112;HTU21D;61301;51.956;5.876;2024-02-23T03:49:04;10.29;56.57
73112;HTU21D;61301;51.956;5.876;2024-02-23T03:51:30;10.27;56.75
73112;HTU21D;61301;51.956;5.876;2024-02-23T03:53:58;10.28;56.67
73112;HTU21D;61301;51.956;5.876;2024-02-23T03:56:24;10.29;56.64
73112;HTU21D;61301;51.956;5.876;2024-02-23T03:58:50;10.36;56.48
73112;HTU21D;61301;51.956;5.876;2024-02-23T04:01:16;10.36;56.48
73112;HTU21D;61301;51.956;5.876;2024-02-23T04:03:42;10.26;56.69
73112;HTU21D;61301;51.956;5.876;2024-02-23T04:06:08;10.30;56.65
73112;HTU21D;61301;51.956;5.876;2024-02-23T04:08:34;10.30;56.59
73112;HTU21D;61301;51.956;5.876;2024-02-23T04:11:00;10.33;56.58
73112;HTU21D;61301;51.956;5.876;2024-02-23T04:13:26;10.20;57.06
73112;HTU21D;61301;51.956;5.876;2024-02-23T04:15:54;10.29;56.90
73112;HTU21D;61301;51.956;5.876;2024-02-23T04:18:23;10.23;56.99
73112;HTU21D;61301;51.956;5.876;2024-02-23T04:20:49;10.28;56.91
73112;HTU21D;61301;51.956;5.876;2024-02-23T04:23:15;10.19;57.17
73112;HTU21D;61301;51.956;5.876;2024-02-23T04:25:41;10.23;56.88
73112;HTU21D;61301;51.956;5.876;2024-02-23T04:28:07;10.16;57.09
73112;HTU21D;61301;51.956;5.876;2024-02-23T04:30:33;10.24;56.84
73112;HTU21D;61301;51.956;5.876;2024-02-23T04:32:59;10.30;56.80
73112;HTU21D;61301;51.956;5.876;2024-02-23T04:35:28;10.24;57.04
73112;HTU21D;61301;51.956;5.876;2024-02-23T04:37:54;10.21;56.97
73112;HTU21D;61301;51.956;5.876;2024-02-23T04:40:20;10.25;56.93
73112;HTU21D;61301;51.956;5.876;2024-02-23T04:42:46;10.21;57.11
73112;HTU21D;61301;51.956;5.876;2024-02-23T04:45:13;10.28;56.84
73112;HTU21D;61301;51.956;5.876;2024-02-23T04:47:39;10.23;56.91
73112;HTU21D;61301;51.956;5.876;2024-02-23T04:50:06;10.26;56.95
73112;HTU21D;61301;51.956;5.876;2024-02-23T04:52:32;10.16;57.19
73112;HTU21D;61301;51.956;5.876;2024-02-23T04:54:58;10.26;56.88
73112;HTU21D;61301;51.956;5.876;2024-02-23T04:57:24;10.26;56.97
73112;HTU21D;61301;51.956;5.876;2024-02-23T04:59:50;10.22;57.07
73112;HTU21D;61301;51.956;5.876;2024-02-23T05:02:16;10.24;56.98
73112;HTU21D;61301;51.956;5.876;2024-02-23T05:04:42;10.33;56.96
73112;HTU21D;61301;51.956;5.876;2024-02-23T05:07:08;10.31;56.86
73112;HTU21D;61301;51.956;5.876;2024-02-23T05:09:34;10.36;56.78
73112;HTU21D;61301;51.956;5.876;2024-02-23T05:12:01;10.40;56.61
73112;HTU21D;61301;51.956;5.876;2024-02-23T05:14:27;10.48;56.41
73112;HTU21D;61301;51.956;5.876;2024-02-23T05:16:53;10.49;56.45
73112;HTU21D;61301;51.956;5.876;2024-02-23T05:19:19;10.50;56.32
73112;HTU21D;61301;51.956;5.876;2024-02-23T05:21:45;10.57;56.27
73112;HTU21D;61301;51.956;5.876;2024-02-23T05:24:11;10.59;56.26
73112;HTU21D;61301;51.956;5.876;2024-02-23T05:26:37;10.52;56.20
73112;HTU21D;61301;51.956;5.876;2024-02-23T05:29:03;10.64;55.88
73112;HTU21D;61301;51.956;5.876;2024-02-23T05:32:04;10.70;55.61
73112;HTU21D;61301;51.956;5.876;2024-02-23T05:34:30;10.55;56.07
73112;HTU21D;61301;51.956;5.876;2024-02-23T05:36:57;10.59;55.90
73112;HTU21D;61301;51.956;5.876;2024-02-23T05:39:22;10.58;55.94
73112;HTU21D;61301;51.956;5.876;2024-02-23T05:41:49;10.71;55.89
73112;HTU21D;61301;51.956;5.876;2024-02-23T05:44:15;10.85;55.54
73112;HTU21D;61301;51.956;5.876;2024-02-23T05:46:42;10.73;55.56
73112;HTU21D;61301;51.956;5.876;2024-02-23T05:49:08;10.73;55.61
73112;HTU21D;61301;51.956;5.876;2024-02-23T05:51:35;10.72;55.74
73112;HTU21D;61301;51.956;5.876;2024-02-23T05:54:01;10.77;55.50
73112;HTU21D;61301;51.956;5.876;2024-02-23T05:56:27;10.94;55.25
73112;HTU21D;61301;51.956;5.876;2024-02-23T05:58:53;10.88;55.17
73112;HTU21D;61301;51.956;5.876;2024-02-23T06:01:20;10.86;55.30
73112;HTU21D;61301;51.956;5.876;2024-02-23T06:03:46;10.77;55.35
73112;HTU21D;61301;51.956;5.876;2024-02-23T06:06:12;10.78;55.30
73112;HTU21D;61301;51.956;5.876;2024-02-23T06:08:38;10.74;55.20
73112;HTU21D;61301;51.956;5.876;2024-02-23T06:11:04;10.75;55.00
73112;HTU21D;61301;51.956;5.876;2024-02-23T06:13:30;10.82;54.90
73112;HTU21D;61301;51.956;5.876;2024-02-23T06:15:56;10.88;54.74
73112;HTU21D;61301;51.956;5.876;2024-02-23T06:18:22;10.74;55.05
73112;HTU21D;61301;51.956;5.876;2024-02-23T06:20:51;10.97;54.62
73112;HTU21D;61301;51.956;5.876;2024-02-23T06:23:17;10.87;54.66
73112;HTU21D;61301;51.956;5.876;2024-02-23T06:25:44;10.97;54.65
73112;HTU21D;61301;51.956;5.876;2024-02-23T06:28:10;10.96;54.62
73112;HTU21D;61301;51.956;5.876;2024-02-23T06:30:36;10.83;54.91
73112;HTU21D;61301;51.956;5.876;2024-02-23T06:33:02;10.73;54.97
73112;HTU21D;61301;51.956;5.876;2024-02-23T06:35:30;10.81;55.07
73112;HTU21D;61301;51.956;5.876;2024-02-23T06:37:56;10.78;55.12
73112;HTU21D;61301;51.956;5.876;2024-02-23T06:40:22;10.88;54.94
73112;HTU21D;61301;51.956;5.876;2024-02-23T06:42:48;10.82;54.91
73112;HTU21D;61301;51.956;5.876;2024-02-23T06:45:16;10.95;54.73
73112;HTU21D;61301;51.956;5.876;2024-02-23T06:47:44;11.10;54.69
73112;HTU21D;61301;51.956;5.876;2024-02-23T06:50:10;11.02;54.49
73112;HTU21D;61301;51.956;5.876;2024-02-23T06:52:36;11.00;54.42
73112;HTU21D;61301;51.956;5.876;2024-02-23T06:55:03;10.92;54.81
73112;HTU21D;61301;51.956;5.876;2024-02-23T06:57:29;10.86;54.64
73112;HTU21D;61301;51.956;5.876;2024-02-23T06:59:56;11.01;54.23
73112;HTU21D;61301;51.956;5.876;2024-02-23T07:02:22;11.16;53.70
73112;HTU21D;61301;51.956;5.876;2024-02-23T07:04:48;11.34;53.82
73112;HTU21D;61301;51.956;5.876;2024-02-23T07:07:14;11.33;53.19
73112;HTU21D;61301;51.956;5.876;2024-02-23T07:09:40;11.27;53.50
73112;HTU21D;61301;51.956;5.876;2024-02-23T07:12:06;11.20;53.25
73112;HTU21D;61301;51.956;5.876;2024-02-23T07:14:32;11.30;53.16
73112;HTU21D;61301;51.956;5.876;2024-02-23T07:16:59;11.36;53.10
73112;HTU21D;61301;51.956;5.876;2024-02-23T07:19:24;11.39;52.93
73112;HTU21D;61301;51.956;5.876;2024-02-23T07:21:51;11.41;52.84
73112;HTU21D;61301;51.956;5.876;2024-02-23T07:24:17;11.52;52.41
73112;HTU21D;61301;51.956;5.876;2024-02-23T07:26:43;11.51;52.11
73112;HTU21D;61301;51.956;5.876;2024-02-23T07:29:09;11.33;52.36
73112;HTU21D;61301;51.956;5.876;2024-02-23T07:31:35;11.52;52.56
73112;HTU21D;61301;51.956;5.876;2024-02-23T07:34:01;11.66;51.91
73112;HTU21D;61301;51.956;5.876;2024-02-23T07:36:27;11.62;51.46
73112;HTU21D;61301;51.956;5.876;2024-02-23T07:38:53;11.59;51.26
73112;HTU21D;61301;51.956;5.876;2024-02-23T07:41:19;11.57;51.40
73112;HTU21D;61301;51.956;5.876;2024-02-23T07:43:45;11.48;51.12
73112;HTU21D;61301;51.956;5.876;2024-02-23T07:46:14;11.52;51.28
73112;HTU21D;61301;51.956;5.876;2024-02-23T07:48:42;11.57;50.96
73112;HTU21D;61301;51.956;5.876;2024-02-23T07:51:08;11.83;50.76
73112;HTU21D;61301;51.956;5.876;2024-02-23T07:53:35;11.67;50.19
73112;HTU21D;61301;51.956;5.876;2024-02-23T07:56:00;11.84;50.16
73112;HTU21D;61301;51.956;5.876;2024-02-23T07:58:28;11.82;49.66
73112;HTU21D;61301;51.956;5.876;2024-02-23T08:00:54;11.81;50.02
73112;HTU21D;61301;51.956;5.876;2024-02-23T08:03:20;11.94;50.57
73112;HTU21D;61301;51.956;5.876;2024-02-23T08:05:46;11.88;50.24
73112;HTU21D;61301;51.956;5.876;2024-02-23T08:08:12;11.97;49.94
73112;HTU21D;61301;51.956;5.876;2024-02-23T08:10:38;11.85;49.60
73112;HTU21D;61301;51.956;5.876;2024-02-23T08:13:07;12.12;50.06
73112;HTU21D;61301;51.956;5.876;2024-02-23T08:15:38;12.10;49.31
73112;HTU21D;61301;51.956;5.876;2024-02-23T08:18:04;12.02;49.58
73112;HTU21D;61301;51.956;5.876;2024-02-23T08:20:30;11.99;50.01
73112;HTU21D;61301;51.956;5.876;2024-02-23T08:22:56;11.97;49.79
73112;HTU21D;61301;51.956;5.876;2024-02-23T08:25:22;12.11;50.39
73112;HTU21D;61301;51.956;5.876;2024-02-23T08:27:48;12.02;49.81
73112;HTU21D;61301;51.956;5.876;2024-02-23T08:30:14;12.04;49.95
73112;HTU21D;61301;51.956;5.876;2024-02-23T08:32:41;12.03;49.74
73112;HTU21D;61301;51.956;5.876;2024-02-23T08:35:07;11.93;50.16
73112;HTU21D;61301;51.956;5.876;2024-02-23T08:37:34;12.11;49.66
73112;HTU21D;61301;51.956;5.876;2024-02-23T08:40:00;12.03;49.78
73112;HTU21D;61301;51.956;5.876;2024-02-23T08:42:26;12.17;49.63
73112;HTU21D;61301;51.956;5.876;2024-02-23T08:44:52;12.25;49.11
73112;HTU21D;61301;51.956;5.876;2024-02-23T08:47:20;12.37;49.15
73112;HTU21D;61301;51.956;5.876;2024-02-23T08:49:46;12.29;49.28
73112;HTU21D;61301;51.956;5.876;2024-02-23T08:52:12;12.37;49.42
73112;HTU21D;61301;51.956;5.876;2024-02-23T08:54:38;12.38;48.92
73112;HTU21D;61301;51.956;5.876;2024-02-23T08:57:05;12.58;48.78
73112;HTU21D;61301;51.956;5.876;2024-02-23T08:59:34;12.57;48.56
73112;HTU21D;61301;51.956;5.876;2024-02-23T09:02:00;12.45;48.66
73112;HTU21D;61301;51.956;5.876;2024-02-23T09:04:26;12.41;48.83
73112;HTU21D;61301;51.956;5.876;2024-02-23T09:06:52;12.44;48.69
73112;HTU21D;61301;51.956;5.876;2024-02-23T09:09:19;12.37;49.05
73112;HTU21D;61301;51.956;5.876;2024-02-23T09:11:45;12.21;48.86
73112;HTU21D;61301;51.956;5.876;2024-02-23T09:14:11;12.30;49.11
73112;HTU21D;61301;51.956;5.876;2024-02-23T09:16:37;12.47;49.02
73112;HTU21D;61301;51.956;5.876;2024-02-23T09:19:03;12.26;48.89
73112;HTU21D;61301;51.956;5.876;2024-02-23T09:21:29;12.14;49.18
73112;HTU21D;61301;51.956;5.876;2024-02-23T09:23:55;12.23;48.89
73112;HTU21D;61301;51.956;5.876;2024-02-23T09:26:21;12.35;48.65
73112;HTU21D;61301;51.956;5.876;2024-02-23T09:28:47;12.32;48.89
73112;HTU21D;61301;51.956;5.876;2024-02-23T09:31:13;12.27;49.04
73112;HTU21D;61301;51.956;5.876;2024-02-23T09:33:39;12.07;49.45
73112;HTU21D;61301;51.956;5.876;2024-02-23T09:36:05;12.19;49.30
73112;HTU21D;61301;51.956;5.876;2024-02-23T09:38:31;12.10;49.57
73112;HTU21D;61301;51.956;5.876;2024-02-23T09:40:58;12.23;49.56
73112;HTU21D;61301;51.956;5.876;2024-02-23T09:43:29;12.16;49.73
73112;HTU21D;61301;51.956;5.876;2024-02-23T09:45:56;12.31;49.81
73112;HTU21D;61301;51.956;5.876;2024-02-23T09:48:23;12.27;49.68
73112;HTU21D;61301;51.956;5.876;2024-02-23T09:50:51;12.44;49.53
73112;HTU21D;61301;51.956;5.876;2024-02-23T09:53:19;12.29;49.66
73112;HTU21D;61301;51.956;5.876;2024-02-23T09:55:47;12.44;49.95
73112;HTU21D;61301;51.956;5.876;2024-02-23T09:58:15;12.45;49.52
73112;HTU21D;61301;51.956;5.876;2024-02-23T10:00:43;12.45;49.78
73112;HTU21D;61301;51.956;5.876;2024-02-23T10:03:09;12.55;49.63
73112;HTU21D;61301;51.956;5.876;2024-02-23T10:05:35;12.45;49.78
73112;HTU21D;61301;51.956;5.876;2024-02-23T10:08:01;12.63;49.66
73112;HTU21D;61301;51.956;5.876;2024-02-23T10:10:35;12.52;49.53
73112;HTU21D;61301;51.956;5.876;2024-02-23T10:13:01;12.47;49.92
73112;HTU21D;61301;51.956;5.876;2024-02-23T10:15:30;12.59;50.23
73112;HTU21D;61301;51.956;5.876;2024-02-23T10:17:59;12.59;50.51
73112;HTU21D;61301;51.956;5.876;2024-02-23T10:20:25;12.36;51.20
73112;HTU21D;61301;51.956;5.876;2024-02-23T10:22:51;12.23;51.72
73112;HTU21D;61301;51.956;5.876;2024-02-23T10:25:19;12.21;52.09
73112;HTU21D;61301;51.956;5.876;2024-02-23T10:27:45;12.28;52.03
73112;HTU21D;61301;51.956;5.876;2024-02-23T10:30:13;12.28;52.14
73112;HTU21D;61301;51.956;5.876;2024-02-23T10:32:41;12.22;52.30
73112;HTU21D;61301;51.956;5.876;2024-02-23T10:35:11;12.05;52.40
73112;HTU21D;61301;51.956;5.876;2024-02-23T10:37:43;12.19;52.30
73112;HTU21D;61301;51.956;5.876;2024-02-23T10:40:11;12.18;52.73
73112;HTU21D;61301;51.956;5.876;2024-02-23T10:42:38;11.97;53.60
73112;HTU21D;61301;51.956;5.876;2024-02-23T10:45:05;12.18;53.63
73112;HTU21D;61301;51.956;5.876;2024-02-23T10:47:32;12.20;53.43
73112;HTU21D;61301;51.956;5.876;2024-02-23T10:50:02;12.23;52.74
73112;HTU21D;61301;51.956;5.876;2024-02-23T10:52:29;12.28;52.48
73112;HTU21D;61301;51.956;5.876;2024-02-23T10:54:57;12.34;52.10
73112;HTU21D;61301;51.956;5.876;2024-02-23T10:57:23;12.37;51.69
73112;HTU21D;61301;51.956;5.876;2024-02-23T10:59:49;12.49;51.89
73112;HTU21D;61301;51.956;5.876;2024-02-23T11:02:18;12.67;51.16
73112;HTU21D;61301;51.956;5.876;2024-02-23T11:04:47;12.71;51.04
73112;HTU21D;61301;51.956;5.876;2024-02-23T11:07:19;12.56;50.87
73112;HTU21D;61301;51.956;5.876;2024-02-23T11:09:58;12.61;50.65
73112;HTU21D;61301;51.956;5.876;2024-02-23T11:12:25;12.59;50.38
73112;HTU21D;61301;51.956;5.876;2024-02-23T11:15:04;12.56;50.72
73112;HTU21D;61301;51.956;5.876;2024-02-23T11:17:31;12.74;50.44
73112;HTU21D;61301;51.956;5.876;2024-02-23T11:19:58;12.70;50.54
73112;HTU21D;61301;51.956;5.876;2024-02-23T11:22:30;12.58;50.72
73112;HTU21D;61301;51.956;5.876;2024-02-23T11:25:16;12.77;50.72
73112;HTU21D;61301;51.956;5.876;2024-02-23T11:27:51;12.74;50.70
73112;HTU21D;61301;51.956;5.876;2024-02-23T11:30:34;12.57;50.75
73112;HTU21D;61301;51.956;5.876;2024-02-23T11:33:47;12.77;50.66
73112;HTU21D;61301;51.956;5.876;2024-02-23T11:36:32;12.85;50.98
73112;HTU21D;61301;51.956;5.876;2024-02-23T11:39:04;12.66;50.93
73112;HTU21D;61301;51.956;5.876;2024-02-23T11:41:36;12.65;50.89
73112;HTU21D;61301;51.956;5.876;2024-02-23T11:44:06;12.71;50.71
73112;HTU21D;61301;51.956;5.876;2024-02-23T11:46:38;12.65;51.03
73112;HTU21D;61301;51.956;5.876;2024-02-23T11:49:09;12.67;50.72
73112;HTU21D;61301;51.956;5.876;2024-02-23T12:02:42;12.76;50.48
73112;HTU21D;61301;51.956;5.876;2024-02-23T12:06:02;12.65;50.78
73112;HTU21D;61301;51.956;5.876;2024-02-23T12:08:38;12.63;50.71
73112;HTU21D;61301;51.956;5.876;2024-02-23T12:11:17;12.72;50.76
73112;HTU21D;61301;51.956;5.876;2024-02-23T12:14:03;12.81;50.66
73112;HTU21D;61301;51.956;5.876;2024-02-23T12:16:59;12.65;50.90
73112;HTU21D;61301;51.956;5.876;2024-02-23T12:19:43;12.80;50.89
73112;HTU21D;61301;51.956;5.876;2024-02-23T12:22:39;12.81;50.75
73112;HTU21D;61301;51.956;5.876;2024-02-23T12:25:31;12.95;50.70
73112;HTU21D;61301;51.956;5.876;2024-02-23T12:27:57;12.90;50.18
73112;HTU21D;61301;51.956;5.876;2024-02-23T12:30:36;13.03;50.47
73112;HTU21D;61301;51.956;5.876;2024-02-23T12:33:20;13.05;50.07
73112;HTU21D;61301;51.956;5.876;2024-02-23T12:35:54;12.94;50.40
73112;HTU21D;61301;51.956;5.876;2024-02-23T12:38:28;13.08;50.38
73112;HTU21D;61301;51.956;5.876;2024-02-23T12:41:09;13.05;50.06
73112;HTU21D;61301;51.956;5.876;2024-02-23T12:44:07;13.06;50.24
73112;HTU21D;61301;51.956;5.876;2024-02-23T12:47:22;13.02;50.14
73112;HTU21D;61301;51.956;5.876;2024-02-23T12:50:10;13.19;49.75
73112;HTU21D;61301;51.956;5.876;2024-02-23T12:52:52;13.21;49.56
73112;HTU21D;61301;51.956;5.876;2024-02-23T12:55:24;13.20;49.99
73112;HTU21D;61301;51.956;5.876;2024-02-23T12:58:16;13.31;49.47
73112;HTU21D;61301;51.956;5.876;2024-02-23T13:04:27;13.32;49.46
73112;HTU21D;61301;51.956;5.876;2024-02-23T13:06:56;13.33;49.64
73112;HTU21D;61301;51.956;5.876;2024-02-23T13:09:40;13.40;49.85
73112;HTU21D;61301;51.956;5.876;2024-02-23T13:12:09;13.35;49.84
73112;HTU21D;61301;51.956;5.876;2024-02-23T13:14:39;13.32;49.50
73112;HTU21D;61301;51.956;5.876;2024-02-23T13:17:11;13.46;49.49
73112;HTU21D;61301;51.956;5.876;2024-02-23T13:19:46;13.52;49.79
73112;HTU21D;61301;51.956;5.876;2024-02-23T13:22:21;13.78;49.15
73112;HTU21D;61301;51.956;5.876;2024-02-23T13:24:55;13.95;48.45
73112;HTU21D;61301;51.956;5.876;2024-02-23T13:27:34;14.09;48.21
73112;HTU21D;61301;51.956;5.876;2024-02-23T13:30:03;14.26;47.64
73112;HTU21D;61301;51.956;5.876;2024-02-23T13:32:30;14.48;47.13
73112;HTU21D;61301;51.956;5.876;2024-02-23T13:35:51;14.27;46.76
73112;HTU21D;61301;51.956;5.876;2024-02-23T13:38:37;14.19;47.48
73112;HTU21D;61301;51.956;5.876;2024-02-23T13:45:06;13.95;48.19
73112;HTU21D;61301;51.956;5.876;2024-02-23T13:47:36;13.94;48.40
73112;HTU21D;61301;51.956;5.876;2024-02-23T13:50:06;14.10;48.20
73112;HTU21D;61301;51.956;5.876;2024-02-23T13:52:54;14.20;47.96
73112;HTU21D;61301;51.956;5.876;2024-02-23T13:55:38;14.14;47.79
73112;HTU21D;61301;51.956;5.876;2024-02-23T13:58:05;14.33;48.07
73112;HTU21D;61301;51.956;5.876;2024-02-23T14:00:31;14.41;47.59
73112;HTU21D;61301;51.956;5.876;2024-02-23T14:02:57;14.71;47.76
73112;HTU21D;61301;51.956;5.876;2024-02-23T14:05:23;14.94;46.86
73112;HTU21D;61301;51.956;5.876;2024-02-23T14:07:51;14.85;45.99
73112;HTU21D;61301;51.956;5.876;2024-02-23T14:10:19;15.06;45.28
73112;HTU21D;61301;51.956;5.876;2024-02-23T14:12:45;15.06;45.78
73112;HTU21D;61301;51.956;5.876;2024-02-23T14:15:11;15.06;45.58
73112;HTU21D;61301;51.956;5.876;2024-02-23T14:17:38;15.18;45.52
73112;HTU21D;61301;51.956;5.876;2024-02-23T14:20:05;15.31;45.75
73112;HTU21D;61301;51.956;5.876;2024-02-23T14:22:32;15.57;45.18
73112;HTU21D;61301;51.956;5.876;2024-02-23T14:24:58;15.52;44.82
73112;HTU21D;61301;51.956;5.876;2024-02-23T14:27:24;15.14;45.16
73112;HTU21D;61301;51.956;5.876;2024-02-23T14:29:50;15.03;45.38
73112;HTU21D;61301;51.956;5.876;2024-02-23T14:32:18;14.84;46.35
73112;HTU21D;61301;51.956;5.876;2024-02-23T14:34:44;14.80;46.36
73112;HTU21D;61301;51.956;5.876;2024-02-23T14:37:11;14.62;46.75
73112;HTU21D;61301;51.956;5.876;2024-02-23T14:39:37;14.41;47.03
73112;HTU21D;61301;51.956;5.876;2024-02-23T14:42:03;14.42;47.20
73112;HTU21D;61301;51.956;5.876;2024-02-23T14:44:29;14.28;47.89
73112;HTU21D;61301;51.956;5.876;2024-02-23T14:46:55;14.56;48.03
73112;HTU21D;61301;51.956;5.876;2024-02-23T14:49:22;14.50;48.05
73112;HTU21D;61301;51.956;5.876;2024-02-23T14:51:48;14.21;48.26
73112;HTU21D;61301;51.956;5.876;2024-02-23T14:54:14;13.86;49.34
73112;HTU21D;61301;51.956;5.876;2024-02-23T14:56:40;13.98;49.81
73112;HTU21D;61301;51.956;5.876;2024-02-23T14:59:07;13.96;50.30
73112;HTU21D;61301;51.956;5.876;2024-02-23T15:01:39;13.77;51.49
73112;HTU21D;61301;51.956;5.876;2024-02-23T15:04:09;13.52;52.20
73112;HTU21D;61301;51.956;5.876;2024-02-23T15:06:35;13.46;52.43
73112;HTU21D;61301;51.956;5.876;2024-02-23T15:09:04;13.46;52.76
73112;HTU21D;61301;51.956;5.876;2024-02-23T15:11:31;13.33;52.85
73112;HTU21D;61301;51.956;5.876;2024-02-23T15:13:57;13.29;53.20
73112;HTU21D;61301;51.956;5.876;2024-02-23T15:16:24;13.33;53.09
73112;HTU21D;61301;51.956;5.876;2024-02-23T15:18:51;13.51;53.01
73112;HTU21D;61301;51.956;5.876;2024-02-23T15:21:17;13.43;52.67
73112;HTU21D;61301;51.956;5.876;2024-02-23T15:23:44;13.44;52.95
73112;HTU21D;61301;51.956;5.876;2024-02-23T15:26:11;13.48;52.76
73112;HTU21D;61301;51.956;5.876;2024-02-23T15:28:37;13.47;52.75
73112;HTU21D;61301;51.956;5.876;2024-02-23T15:31:04;13.46;53.00
73112;HTU21D;61301;51.956;5.876;2024-02-23T15:33:30;13.44;53.04
73112;HTU21D;61301;51.956;5.876;2024-02-23T15:35:56;13.45;52.93
73112;HTU21D;61301;51.956;5.876;2024-02-23T15:38:22;13.41;53.06
73112;HTU21D;61301;51.956;5.876;2024-02-23T15:40:48;13.43;53.27
73112;HTU21D;61301;51.956;5.876;2024-02-23T15:43:14;13.39;53.34